Time;durP1;ratioP1;P1;durP2;ratioP2;P2;SDS_P1;SDS_P2;PMS_P1;PMS_P2;Temp;Humidity;BMP_temperature;BMP_pressure;BME280_temperature;BME280_humidity;BME280_pressure;Samples;Min_cycle;Max_cycle;Signal;HPM_P1;HPM_P2
2024/04/10 00:00:54;;;;;;;2.47;0.70;;;;;;;;;;5353193;26;20007;-70
2024/04/10 00:03:22;;;;;;;2.55;1.10;;;;;;;;;;5356586;26;20000;-70
2024/04/10 00:06:04;;;;;;;1.42;1.02;;;;;;;;;;5356223;26;20107;-70
2024/04/10 00:08:30;;;;;;;2.72;1.08;;;;;;;;;;5352061;26;20015;-70
2024/04/10 00:10:56;;;;;;;1.42;0.85;;;;;;;;;;5348975;26;20001;-70
2024/04/10 00:13:22;;;;;;;1.92;0.80;;;;;;;;;;5357156;26;20000;-70
2024/04/10 00:15:57;;;;;;;1.02;0.45;;;;;;;;;;5347548;26;20305;-70
2024/04/10 00:18:23;;;;;;;1.10;0.63;;;;;;;;;;5340429;26;20318;-70
2024/04/10 00:20:49;;;;;;;1.02;0.60;;;;;;;;;;5349200;26;20110;-69
2024/04/10 00:23:15;;;;;;;1.88;0.77;;;;;;;;;;5366542;26;20016;-69
2024/04/10 00:25:40;;;;;;;1.67;0.93;;;;;;;;;;5346447;26;20001;-70
2024/04/10 00:28:06;;;;;;;1.48;0.77;;;;;;;;;;5335540;26;20012;-69
2024/04/10 00:30:32;;;;;;;1.77;0.70;;;;;;;;;;5344081;26;20140;-70
2024/04/10 00:33:00;;;;;;;1.33;0.90;;;;;;;;;;5362058;26;20007;-70
2024/04/10 00:35:26;;;;;;;1.50;0.80;;;;;;;;;;5363131;26;20160;-69
2024/04/10 00:37:52;;;;;;;1.88;1.02;;;;;;;;;;5358973;26;20020;-70
2024/04/10 00:40:18;;;;;;;3.03;1.20;;;;;;;;;;5354919;26;19997;-70
2024/04/10 00:42:44;;;;;;;3.08;1.25;;;;;;;;;;5355454;26;20329;-70
2024/04/10 00:45:09;;;;;;;1.70;1.00;;;;;;;;;;5360158;26;20416;-70
2024/04/10 00:47:35;;;;;;;2.47;1.05;;;;;;;;;;5363756;26;20005;-70
2024/04/10 00:50:01;;;;;;;1.48;0.82;;;;;;;;;;5348491;26;21602;-70
2024/04/10 00:52:27;;;;;;;0.95;0.80;;;;;;;;;;5355305;26;20136;-70
2024/04/10 00:54:53;;;;;;;6.00;1.08;;;;;;;;;;5357297;26;20014;-69
2024/04/10 00:57:19;;;;;;;1.92;1.15;;;;;;;;;;5361536;26;20073;-70
2024/04/10 00:59:45;;;;;;;0.93;0.90;;;;;;;;;;5352972;26;20009;-70
2024/04/10 01:02:11;;;;;;;2.58;1.10;;;;;;;;;;5354210;26;20288;-70
2024/04/10 01:04:37;;;;;;;3.35;0.90;;;;;;;;;;5370203;26;21388;-69
2024/04/10 01:07:13;;;;;;;2.75;1.00;;;;;;;;;;5355918;26;20488;-69
2024/04/10 01:09:38;;;;;;;3.35;0.95;;;;;;;;;;5352045;26;20017;-69
2024/04/10 01:12:04;;;;;;;6.22;1.10;;;;;;;;;;5354892;26;20030;-70
2024/04/10 01:14:30;;;;;;;2.35;0.90;;;;;;;;;;5353058;26;20044;-69
2024/04/10 01:16:56;;;;;;;2.38;1.17;;;;;;;;;;5369092;26;20122;-70
2024/04/10 01:19:22;;;;;;;2.80;1.20;;;;;;;;;;5353767;26;20389;-70
2024/04/10 01:21:48;;;;;;;4.05;1.25;;;;;;;;;;5353724;26;19996;-70
2024/04/10 01:24:14;;;;;;;2.50;1.17;;;;;;;;;;5356500;26;19997;-70
2024/04/10 01:26:40;;;;;;;3.85;1.20;;;;;;;;;;5346021;26;20349;-70
2024/04/10 01:29:06;;;;;;;1.92;1.00;;;;;;;;;;5346600;26;20111;-70
2024/04/10 01:31:31;;;;;;;5.00;1.40;;;;;;;;;;5354225;26;20012;-69
2024/04/10 01:33:57;;;;;;;3.67;1.65;;;;;;;;;;5355763;26;20175;-69
2024/04/10 01:36:23;;;;;;;3.05;1.08;;;;;;;;;;5358831;26;20085;-69
2024/04/10 01:38:50;;;;;;;1.85;0.90;;;;;;;;;;5356118;26;20072;-70
2024/04/10 01:41:16;;;;;;;1.95;1.20;;;;;;;;;;5355438;26;20004;-70
2024/04/10 01:43:42;;;;;;;2.33;1.20;;;;;;;;;;5354476;26;20024;-70
2024/04/10 01:46:08;;;;;;;3.45;1.13;;;;;;;;;;5358550;26;20205;-70
2024/04/10 01:48:34;;;;;;;3.22;1.02;;;;;;;;;;5356621;26;19997;-70
2024/04/10 01:51:00;;;;;;;2.22;1.15;;;;;;;;;;5357579;26;20209;-69
2024/04/10 01:53:26;;;;;;;2.53;1.30;;;;;;;;;;5362154;26;20420;-70
2024/04/10 01:55:52;;;;;;;1.80;1.23;;;;;;;;;;5359117;26;20078;-70
2024/04/10 01:58:17;;;;;;;2.25;1.30;;;;;;;;;;5350813;26;20011;-70
2024/04/10 02:00:43;;;;;;;1.25;0.75;;;;;;;;;;5356433;26;20001;-70
2024/04/10 02:03:09;;;;;;;1.30;0.80;;;;;;;;;;5359062;26;20028;-69
2024/04/10 02:05:36;;;;;;;4.18;1.20;;;;;;;;;;5359880;26;20031;-70
2024/04/10 02:08:02;;;;;;;6.30;1.17;;;;;;;;;;5349336;26;19996;-70
2024/04/10 02:10:28;;;;;;;2.90;1.17;;;;;;;;;;5352593;26;20011;-70
2024/04/10 02:12:54;;;;;;;2.90;1.15;;;;;;;;;;5345154;26;20011;-70
2024/04/10 02:15:20;;;;;;;1.35;0.90;;;;;;;;;;5358814;26;20432;-70
2024/04/10 02:17:46;;;;;;;1.15;0.73;;;;;;;;;;5362904;26;20087;-70
2024/04/10 02:20:15;;;;;;;1.30;1.00;;;;;;;;;;5339754;26;20000;-69
2024/04/10 02:22:42;;;;;;;2.90;1.33;;;;;;;;;;5351270;26;20001;-70
2024/04/10 02:25:08;;;;;;;3.65;1.48;;;;;;;;;;5365415;26;20009;-69
2024/04/10 02:27:34;;;;;;;3.92;1.17;;;;;;;;;;5362915;26;20055;-70
2024/04/10 02:30:00;;;;;;;2.63;1.13;;;;;;;;;;5349415;26;20042;-70
2024/04/10 02:32:26;;;;;;;3.30;1.10;;;;;;;;;;5353922;26;20072;-69
2024/04/10 02:34:51;;;;;;;3.97;1.35;;;;;;;;;;5361520;26;20108;-69
2024/04/10 02:37:18;;;;;;;1.70;0.93;;;;;;;;;;5359329;26;20000;-70
2024/04/10 02:39:44;;;;;;;2.25;0.93;;;;;;;;;;5360080;26;20451;-69
2024/04/10 02:42:10;;;;;;;2.42;0.85;;;;;;;;;;5356445;26;20309;-70
2024/04/10 02:44:36;;;;;;;2.17;0.95;;;;;;;;;;5356267;26;20558;-70
2024/04/10 02:47:02;;;;;;;1.65;1.08;;;;;;;;;;5360107;26;20008;-69
2024/04/10 02:49:28;;;;;;;1.45;0.70;;;;;;;;;;5357992;26;20008;-70
2024/04/10 02:51:54;;;;;;;1.77;0.93;;;;;;;;;;5364106;26;20000;-69
2024/04/10 02:54:20;;;;;;;1.55;0.55;;;;;;;;;;5363084;26;20337;-70
2024/04/10 02:56:45;;;;;;;2.45;0.93;;;;;;;;;;5346936;26;20414;-69
2024/04/10 02:59:11;;;;;;;0.70;0.57;;;;;;;;;;5347708;26;20015;-70
2024/04/10 03:01:39;;;;;;;4.15;1.05;;;;;;;;;;5355039;26;20004;-70
2024/04/10 03:04:05;;;;;;;0.65;0.55;;;;;;;;;;5350218;26;20024;-70
2024/04/10 03:06:32;;;;;;;0.70;0.55;;;;;;;;;;5341548;26;20077;-70
2024/04/10 03:08:58;;;;;;;1.50;0.65;;;;;;;;;;5363727;26;20140;-70
2024/04/10 03:11:24;;;;;;;0.85;0.47;;;;;;;;;;5363590;26;20266;-70
2024/04/10 03:13:51;;;;;;;3.22;1.15;;;;;;;;;;5360642;26;20115;-70
2024/04/10 03:16:17;;;;;;;1.35;0.65;;;;;;;;;;5361132;26;20065;-70
2024/04/10 03:18:43;;;;;;;3.15;0.80;;;;;;;;;;5343570;26;20417;-70
2024/04/10 03:21:09;;;;;;;3.08;0.60;;;;;;;;;;5351009;26;19997;-70
2024/04/10 03:23:35;;;;;;;1.13;0.70;;;;;;;;;;5357663;26;20026;-69
2024/04/10 03:26:05;;;;;;;2.45;0.60;;;;;;;;;;5362497;26;19992;-70
2024/04/10 03:28:30;;;;;;;1.35;0.70;;;;;;;;;;5358647;26;20035;-70
2024/04/10 03:30:56;;;;;;;1.67;0.60;;;;;;;;;;5353729;26;20012;-70
2024/04/10 03:33:24;;;;;;;3.42;0.70;;;;;;;;;;5367932;26;19996;-70
2024/04/10 03:35:51;;;;;;;0.75;0.40;;;;;;;;;;5365352;26;20041;-71
2024/04/10 03:38:17;;;;;;;0.80;0.50;;;;;;;;;;5367621;26;20467;-71
2024/04/10 03:40:42;;;;;;;1.63;0.50;;;;;;;;;;5350563;26;20069;-69
2024/04/10 03:43:08;;;;;;;0.98;0.40;;;;;;;;;;5343372;26;20086;-70
2024/04/10 03:45:35;;;;;;;1.00;0.63;;;;;;;;;;5348379;26;21381;-70
2024/04/10 03:48:00;;;;;;;1.45;0.50;;;;;;;;;;5358344;26;20003;-70
2024/04/10 03:50:26;;;;;;;1.10;0.30;;;;;;;;;;5350107;26;20004;-69
2024/04/10 03:52:52;;;;;;;1.30;0.63;;;;;;;;;;5364581;26;20004;-70
2024/04/10 03:55:18;;;;;;;2.63;0.70;;;;;;;;;;5361216;26;20131;-70
2024/04/10 03:57:44;;;;;;;1.15;0.52;;;;;;;;;;5364199;26;20011;-70
2024/04/10 04:00:10;;;;;;;0.63;0.50;;;;;;;;;;5360923;26;20000;-70
2024/04/10 04:02:36;;;;;;;1.15;0.65;;;;;;;;;;5367332;26;20412;-69
2024/04/10 04:05:02;;;;;;;1.88;0.75;;;;;;;;;;5355970;26;20000;-70
2024/04/10 04:07:28;;;;;;;2.25;0.80;;;;;;;;;;5359688;26;20019;-70
2024/04/10 04:09:54;;;;;;;3.35;0.65;;;;;;;;;;5350677;26;20298;-70
2024/04/10 04:12:20;;;;;;;2.08;0.60;;;;;;;;;;5355919;26;20020;-70
2024/04/10 04:14:46;;;;;;;1.23;0.50;;;;;;;;;;5340805;26;20221;-71
2024/04/10 04:17:11;;;;;;;0.80;0.50;;;;;;;;;;5354674;26;20562;-70
2024/04/10 04:19:37;;;;;;;2.35;0.85;;;;;;;;;;5359384;26;20101;-70
2024/04/10 04:22:03;;;;;;;1.48;0.80;;;;;;;;;;5352647;26;19993;-70
2024/04/10 04:24:29;;;;;;;1.17;0.52;;;;;;;;;;5347261;26;20186;-70
2024/04/10 04:26:56;;;;;;;4.00;0.50;;;;;;;;;;5360959;26;20413;-70
2024/04/10 04:29:22;;;;;;;1.48;0.68;;;;;;;;;;5357834;26;20148;-67
2024/04/10 04:31:51;;;;;;;3.20;0.80;;;;;;;;;;5364308;26;20016;-67
2024/04/10 04:34:17;;;;;;;0.30;0.30;;;;;;;;;;5359924;26;20016;-67
2024/04/10 04:36:44;;;;;;;0.52;0.52;;;;;;;;;;5350191;26;20048;-67
2024/04/10 04:39:13;;;;;;;1.90;1.17;;;;;;;;;;5348298;26;20019;-67
2024/04/10 04:41:39;;;;;;;2.35;0.68;;;;;;;;;;5346454;26;20106;-67
2024/04/10 04:44:05;;;;;;;0.50;0.50;;;;;;;;;;5359007;26;20015;-67
2024/04/10 04:46:31;;;;;;;0.85;0.45;;;;;;;;;;5369228;26;20004;-67
2024/04/10 04:48:57;;;;;;;0.60;0.50;;;;;;;;;;5369838;26;20027;-67
2024/04/10 04:51:23;;;;;;;0.70;0.60;;;;;;;;;;5365024;26;20085;-67
2024/04/10 04:53:49;;;;;;;3.35;0.80;;;;;;;;;;5364748;26;20020;-66
2024/04/10 04:56:15;;;;;;;0.73;0.60;;;;;;;;;;5358532;26;20194;-67
2024/04/10 04:58:40;;;;;;;0.77;0.65;;;;;;;;;;5360709;26;19996;-68
2024/04/10 05:01:07;;;;;;;1.80;0.70;;;;;;;;;;5352856;26;20017;-66
2024/04/10 05:06:17;;;;;;;3.45;0.70;;;;;;;;;;5339321;26;20370;-67
2024/04/10 05:08:43;;;;;;;1.30;0.90;;;;;;;;;;5364563;26;20004;-67
2024/04/10 05:11:10;;;;;;;3.05;0.98;;;;;;;;;;5351216;26;19997;-66
2024/04/10 05:13:36;;;;;;;2.45;1.13;;;;;;;;;;5354971;26;20008;-67
2024/04/10 05:16:03;;;;;;;0.90;0.50;;;;;;;;;;5356444;26;20001;-66
2024/04/10 05:18:28;;;;;;;1.42;0.70;;;;;;;;;;5351396;26;20012;-67
2024/04/10 05:20:54;;;;;;;1.08;0.50;;;;;;;;;;5345508;26;20082;-67
2024/04/10 05:23:20;;;;;;;0.93;0.63;;;;;;;;;;5351010;26;20008;-68
2024/04/10 05:25:49;;;;;;;0.73;0.43;;;;;;;;;;5343925;26;20004;-67
2024/04/10 05:28:14;;;;;;;2.13;0.95;;;;;;;;;;5367422;26;20074;-67
2024/04/10 05:30:41;;;;;;;0.88;0.73;;;;;;;;;;5357729;26;20044;-68
2024/04/10 05:33:07;;;;;;;2.88;0.60;;;;;;;;;;5365552;26;20082;-66
2024/04/10 05:35:32;;;;;;;2.83;0.90;;;;;;;;;;5364748;26;20090;-67
2024/04/10 05:37:59;;;;;;;1.30;0.70;;;;;;;;;;5369882;26;20015;-68
2024/04/10 05:40:25;;;;;;;0.45;0.45;;;;;;;;;;5357254;26;20526;-68
2024/04/10 05:42:51;;;;;;;2.08;0.60;;;;;;;;;;5354920;26;20045;-67
2024/04/10 05:45:17;;;;;;;3.15;0.80;;;;;;;;;;5358221;26;19997;-67
2024/04/10 05:47:48;;;;;;;4.32;0.63;;;;;;;;;;5361595;26;20382;-67
2024/04/10 05:50:14;;;;;;;;;;;;;;;;;;5364000;26;19996;-68
2024/04/10 05:52:43;;;;;;;1.50;0.65;;;;;;;;;;5362546;26;19925;-68
2024/04/10 05:55:10;;;;;;;2.50;0.55;;;;;;;;;;5365662;26;20015;-67
2024/04/10 05:57:36;;;;;;;1.10;0.70;;;;;;;;;;5353306;26;20001;-68
2024/04/10 06:00:03;;;;;;;1.27;0.82;;;;;;;;;;5356219;26;20021;-68
2024/04/10 06:02:29;;;;;;;2.75;1.00;;;;;;;;;;5366363;26;20025;-68
2024/04/10 06:04:55;;;;;;;2.22;0.93;;;;;;;;;;5357262;26;20015;-67
2024/04/10 06:07:21;;;;;;;4.53;1.35;;;;;;;;;;5356191;26;20004;-67
2024/04/10 06:09:52;;;;;;;1.23;0.82;;;;;;;;;;5351284;26;20081;-67
2024/04/10 06:12:18;;;;;;;5.13;0.88;;;;;;;;;;5360558;26;20080;-68
2024/04/10 06:14:43;;;;;;;3.40;1.00;;;;;;;;;;5340335;26;20402;-67
2024/04/10 06:17:10;;;;;;;0.80;0.55;;;;;;;;;;5367980;26;20420;-67
2024/04/10 06:19:36;;;;;;;0.85;0.73;;;;;;;;;;5361843;26;20018;-67
2024/04/10 06:22:02;;;;;;;2.00;0.93;;;;;;;;;;5369728;26;20190;-68
2024/04/10 06:24:29;;;;;;;3.28;1.20;;;;;;;;;;5352901;26;20357;-67
2024/04/10 06:26:55;;;;;;;3.17;1.38;;;;;;;;;;5364138;26;20074;-67
2024/04/10 06:29:21;;;;;;;1.45;0.55;;;;;;;;;;5352139;26;20012;-68
2024/04/10 06:31:47;;;;;;;0.95;0.50;;;;;;;;;;5351345;26;20011;-67
2024/04/10 06:34:13;;;;;;;2.53;0.68;;;;;;;;;;5352555;26;20004;-67
2024/04/10 06:36:39;;;;;;;1.13;0.70;;;;;;;;;;5356713;26;20014;-70
2024/04/10 06:39:05;;;;;;;2.17;0.75;;;;;;;;;;5343086;26;20005;-70
2024/04/10 06:41:31;;;;;;;1.25;0.40;;;;;;;;;;5351291;26;20030;-71
2024/04/10 06:43:56;;;;;;;3.25;1.00;;;;;;;;;;5348213;26;20415;-78
2024/04/10 06:46:23;;;;;;;2.25;0.57;;;;;;;;;;5348823;26;20010;-68
2024/04/10 06:48:48;;;;;;;1.25;0.75;;;;;;;;;;5358342;26;20076;-67
2024/04/10 06:51:14;;;;;;;0.32;0.32;;;;;;;;;;5368647;26;20400;-67
2024/04/10 06:53:41;;;;;;;1.30;0.45;;;;;;;;;;5368416;26;20011;-69
2024/04/10 06:56:08;;;;;;;2.35;0.40;;;;;;;;;;5344972;26;20074;-68
2024/04/10 06:58:36;;;;;;;2.33;1.23;;;;;;;;;;5353420;26;20011;-67
2024/04/10 07:01:03;;;;;;;4.18;0.65;;;;;;;;;;5355914;26;20008;-68
2024/04/10 07:03:32;;;;;;;0.70;0.40;;;;;;;;;;5348200;26;20008;-67
2024/04/10 07:06:19;;;;;;;0.68;0.32;;;;;;;;;;5361523;26;20000;-67
2024/04/10 07:08:46;;;;;;;1.00;0.43;;;;;;;;;;5361322;26;20425;-67
2024/04/10 07:11:16;;;;;;;2.05;0.55;;;;;;;;;;5350802;26;20004;-67
2024/04/10 07:13:45;;;;;;;0.70;0.35;;;;;;;;;;5349951;26;20013;-69
2024/04/10 07:16:12;;;;;;;0.98;0.50;;;;;;;;;;5365949;26;20039;-69
2024/04/10 07:18:38;;;;;;;0.35;0.32;;;;;;;;;;5350811;26;20000;-68
2024/04/10 07:21:05;;;;;;;2.30;0.75;;;;;;;;;;5347393;26;20005;-68
2024/04/10 07:23:31;;;;;;;1.35;0.55;;;;;;;;;;5360955;26;20069;-69
2024/04/10 07:26:09;;;;;;;2.33;0.45;;;;;;;;;;5364489;26;20088;-68
2024/04/10 07:28:35;;;;;;;1.13;0.20;;;;;;;;;;5368529;26;20000;-67
2024/04/10 07:31:02;;;;;;;2.75;0.68;;;;;;;;;;5356972;26;20046;-67
2024/04/10 07:33:28;;;;;;;3.83;0.50;;;;;;;;;;5355971;26;20043;-67
2024/04/10 07:35:54;;;;;;;0.63;0.32;;;;;;;;;;5356602;26;20246;-70
2024/04/10 07:38:20;;;;;;;0.93;0.60;;;;;;;;;;5335722;26;20433;-67
2024/04/10 07:40:55;;;;;;;0.95;0.40;;;;;;;;;;5352353;26;20007;-68
2024/04/10 07:43:20;;;;;;;1.20;0.82;;;;;;;;;;5338478;26;20082;-69
2024/04/10 07:45:46;;;;;;;1.95;0.85;;;;;;;;;;5344573;26;20012;-67
2024/04/10 07:48:12;;;;;;;1.05;0.43;;;;;;;;;;5347358;26;20005;-67
2024/04/10 07:50:39;;;;;;;3.38;0.95;;;;;;;;;;5357397;26;20128;-67
2024/04/10 07:53:06;;;;;;;0.52;0.50;;;;;;;;;;5348184;26;19997;-67
2024/04/10 07:55:32;;;;;;;0.90;0.30;;;;;;;;;;5340681;26;20093;-70
2024/04/10 07:57:58;;;;;;;1.15;0.45;;;;;;;;;;5356224;26;19996;-68
2024/04/10 08:00:24;;;;;;;1.02;0.55;;;;;;;;;;5353543;26;20001;-67
2024/04/10 08:02:50;;;;;;;1.42;0.82;;;;;;;;;;5359396;26;20011;-67
2024/04/10 08:05:16;;;;;;;4.05;0.50;;;;;;;;;;5354169;26;20005;-67
2024/04/10 08:07:42;;;;;;;2.83;0.45;;;;;;;;;;5358694;26;20122;-68
2024/04/10 08:11:42;;;;;;;0.80;0.43;;;;;;;;;;5414022;26;20740;-67
2024/04/10 08:14:08;;;;;;;2.42;0.75;;;;;;;;;;5370789;26;20003;-69
2024/04/10 08:16:34;;;;;;;0.20;0.20;;;;;;;;;;5374027;26;20000;-66
2024/04/10 08:19:00;;;;;;;1.50;0.30;;;;;;;;;;5385552;26;20023;-67
2024/04/10 08:21:26;;;;;;;2.00;0.65;;;;;;;;;;5374472;26;20042;-66
2024/04/10 08:23:52;;;;;;;1.05;0.30;;;;;;;;;;5381346;26;20004;-66
2024/04/10 08:26:21;;;;;;;0.43;0.10;;;;;;;;;;5377703;26;20081;-66
2024/04/10 08:28:52;;;;;;;0.25;0.15;;;;;;;;;;5380153;26;20008;-67
2024/04/10 08:31:21;;;;;;;1.60;0.57;;;;;;;;;;5371632;26;20393;-66
2024/04/10 08:33:47;;;;;;;2.17;0.40;;;;;;;;;;5389717;26;20400;-66
2024/04/10 08:36:13;;;;;;;0.75;0.43;;;;;;;;;;5359577;26;20327;-67
2024/04/10 08:38:42;;;;;;;1.63;0.40;;;;;;;;;;5379072;26;20048;-67
2024/04/10 08:41:15;;;;;;;1.10;0.40;;;;;;;;;;5365085;26;20007;-69
2024/04/10 08:43:45;;;;;;;0.63;0.32;;;;;;;;;;5376058;26;20023;-67
2024/04/10 08:46:11;;;;;;;0.80;0.40;;;;;;;;;;5368101;26;20289;-67
2024/04/10 08:48:41;;;;;;;1.40;0.20;;;;;;;;;;5380823;26;20004;-67
2024/04/10 08:51:10;;;;;;;2.63;0.30;;;;;;;;;;5375148;26;20016;-68
2024/04/10 08:53:36;;;;;;;2.45;0.50;;;;;;;;;;5372429;26;20038;-68
2024/04/10 08:56:02;;;;;;;2.50;0.38;;;;;;;;;;5375541;26;20004;-68
2024/04/10 08:58:27;;;;;;;1.52;0.30;;;;;;;;;;5381195;26;20812;-65
2024/04/10 09:00:54;;;;;;;2.17;0.20;;;;;;;;;;5368067;26;20007;-67
2024/04/10 09:03:19;;;;;;;2.13;0.40;;;;;;;;;;5380322;26;20003;-67
2024/04/10 09:05:45;;;;;;;1.15;0.40;;;;;;;;;;5381542;26;20003;-66
2024/04/10 09:08:12;;;;;;;0.95;0.25;;;;;;;;;;5345083;26;19997;-66
2024/04/10 09:10:38;;;;;;;0.28;0.20;;;;;;;;;;5342937;26;20097;-67
2024/04/10 09:13:08;;;;;;;3.28;0.63;;;;;;;;;;5339600;26;20017;-67
2024/04/10 09:15:34;;;;;;;1.75;0.80;;;;;;;;;;5349400;26;19996;-67
2024/04/10 09:18:00;;;;;;;3.55;0.57;;;;;;;;;;5341470;26;20304;-67
2024/04/10 09:20:26;;;;;;;0.80;0.20;;;;;;;;;;5348070;26;20004;-66
2024/04/10 09:22:59;;;;;;;2.90;0.90;;;;;;;;;;5333997;26;20024;-67
2024/04/10 09:25:24;;;;;;;3.22;0.38;;;;;;;;;;5336019;26;20380;-66
2024/04/10 09:28:00;;;;;;;2.10;0.50;;;;;;;;;;5322665;26;20121;-68
2024/04/10 09:30:26;;;;;;;1.55;0.43;;;;;;;;;;5325188;26;20465;-67
2024/04/10 09:32:54;;;;;;;1.65;0.45;;;;;;;;;;5320559;26;20001;-68
2024/04/10 09:35:21;;;;;;;2.00;0.60;;;;;;;;;;5322262;26;20001;-68
2024/04/10 09:37:49;;;;;;;1.38;0.32;;;;;;;;;;5322847;26;20001;-67
2024/04/10 09:40:16;;;;;;;2.25;0.70;;;;;;;;;;5326608;26;20381;-67
2024/04/10 09:42:44;;;;;;;2.97;0.30;;;;;;;;;;5329615;26;20001;-68
2024/04/10 09:45:17;;;;;;;1.42;0.50;;;;;;;;;;5323259;26;20027;-66
2024/04/10 09:47:44;;;;;;;3.00;0.60;;;;;;;;;;5330557;26;19993;-67
2024/04/10 09:50:14;;;;;;;3.92;0.68;;;;;;;;;;5331403;26;20021;-67
2024/04/10 09:52:41;;;;;;;1.40;0.43;;;;;;;;;;5325117;26;20002;-67
2024/04/10 09:55:08;;;;;;;0.65;0.40;;;;;;;;;;5325267;26;20001;-67
2024/04/10 09:57:35;;;;;;;1.48;0.60;;;;;;;;;;5327898;26;20013;-67
2024/04/10 10:00:01;;;;;;;1.80;0.52;;;;;;;;;;5330990;26;20005;-68
2024/04/10 10:02:27;;;;;;;2.38;0.30;;;;;;;;;;5336352;26;20008;-68
2024/04/10 10:04:53;;;;;;;3.25;0.68;;;;;;;;;;5323145;26;20289;-67
2024/04/10 10:07:23;;;;;;;1.50;0.50;;;;;;;;;;5322689;26;20021;-67
2024/04/10 10:09:50;;;;;;;3.42;0.70;;;;;;;;;;5326829;26;20393;-67
2024/04/10 10:12:44;;;;;;;1.77;0.40;;;;;;;;;;5327544;26;20015;-68
2024/04/10 10:15:11;;;;;;;2.25;0.65;;;;;;;;;;5332778;26;20157;-67
2024/04/10 10:17:37;;;;;;;1.55;0.65;;;;;;;;;;5330086;26;20002;-68
2024/04/10 10:20:03;;;;;;;1.92;0.50;;;;;;;;;;5328204;26;20019;-67
2024/04/10 10:22:29;;;;;;;2.05;0.47;;;;;;;;;;5319336;26;20414;-68
2024/04/10 10:24:58;;;;;;;2.28;0.40;;;;;;;;;;5336657;26;20008;-67
2024/04/10 10:27:25;;;;;;;1.40;0.63;;;;;;;;;;5333998;26;20074;-68
2024/04/10 10:29:51;;;;;;;0.40;0.30;;;;;;;;;;5334736;26;20474;-68
2024/04/10 10:32:20;;;;;;;3.20;0.40;;;;;;;;;;5333374;26;20105;-67
2024/04/10 10:34:46;;;;;;;1.02;0.70;;;;;;;;;;5329089;26;20021;-67
2024/04/10 10:37:12;;;;;;;1.70;0.40;;;;;;;;;;5320539;26;20521;-68
2024/04/10 10:39:43;;;;;;;1.65;0.38;;;;;;;;;;5325747;26;20002;-68
2024/04/10 10:42:09;;;;;;;2.85;0.40;;;;;;;;;;5333997;26;20352;-68
2024/04/10 10:44:35;;;;;;;1.75;0.40;;;;;;;;;;5334135;26;20401;-67
2024/04/10 10:47:07;;;;;;;0.35;0.30;;;;;;;;;;5316085;26;20025;-68
2024/04/10 10:49:33;;;;;;;5.70;0.45;;;;;;;;;;5335732;26;20013;-67
2024/04/10 10:51:59;;;;;;;1.05;0.40;;;;;;;;;;5325997;26;20394;-67
2024/04/10 10:54:25;;;;;;;1.00;0.65;;;;;;;;;;5322029;26;20453;-68
2024/04/10 10:56:51;;;;;;;0.93;0.30;;;;;;;;;;5322033;26;20059;-68
2024/04/10 10:59:17;;;;;;;0.45;0.32;;;;;;;;;;5329712;26;20032;-68
2024/04/10 11:01:43;;;;;;;0.80;0.55;;;;;;;;;;5328787;26;20136;-67
2024/04/10 11:04:09;;;;;;;4.05;1.00;;;;;;;;;;5330554;26;20017;-67
2024/04/10 11:06:35;;;;;;;5.10;0.68;;;;;;;;;;5332599;26;20317;-67
2024/04/10 11:09:09;;;;;;;1.42;0.55;;;;;;;;;;5318473;26;19997;-68
2024/04/10 11:11:36;;;;;;;0.73;0.45;;;;;;;;;;5332629;26;20094;-68
2024/04/10 11:14:02;;;;;;;2.45;0.50;;;;;;;;;;5326118;26;20132;-68
2024/04/10 11:16:28;;;;;;;1.58;0.75;;;;;;;;;;5330243;26;20104;-68
2024/04/10 11:18:54;;;;;;;0.65;0.30;;;;;;;;;;5333233;26;20209;-67
2024/04/10 11:21:20;;;;;;;3.33;0.90;;;;;;;;;;5334551;26;20001;-69
2024/04/10 11:23:46;;;;;;;2.25;0.60;;;;;;;;;;5331351;26;20162;-67
2024/04/10 11:26:12;;;;;;;0.70;0.30;;;;;;;;;;5330544;26;20406;-68
2024/04/10 11:28:38;;;;;;;0.70;0.50;;;;;;;;;;5323923;26;20042;-68
2024/04/10 11:31:04;;;;;;;2.80;0.60;;;;;;;;;;5334868;26;20001;-67
2024/04/10 11:33:31;;;;;;;2.28;0.40;;;;;;;;;;5328819;26;20475;-68
2024/04/10 11:35:59;;;;;;;0.82;0.43;;;;;;;;;;5325256;26;19997;-68
2024/04/10 11:38:25;;;;;;;2.22;0.60;;;;;;;;;;5327259;26;20351;-67
2024/04/10 11:40:51;;;;;;;2.28;0.60;;;;;;;;;;5334522;26;20052;-69
2024/04/10 11:43:17;;;;;;;0.30;0.30;;;;;;;;;;5326293;26;19997;-67
2024/04/10 11:45:45;;;;;;;2.30;0.57;;;;;;;;;;5324691;26;20016;-66
2024/04/10 11:48:11;;;;;;;1.55;0.73;;;;;;;;;;5326219;26;20112;-67
2024/04/10 11:50:37;;;;;;;2.17;0.70;;;;;;;;;;5324489;26;20087;-67
2024/04/10 11:53:03;;;;;;;1.33;0.60;;;;;;;;;;5325540;26;20035;-67
2024/04/10 11:55:29;;;;;;;1.73;0.38;;;;;;;;;;5327713;26;20072;-67
2024/04/10 11:57:55;;;;;;;1.67;0.60;;;;;;;;;;5330573;26;19998;-68
2024/04/10 12:00:21;;;;;;;2.55;0.60;;;;;;;;;;5331552;26;20022;-67
2024/04/10 12:02:47;;;;;;;0.90;0.45;;;;;;;;;;5330670;26;20079;-68
2024/04/10 12:05:13;;;;;;;2.70;0.50;;;;;;;;;;5330534;26;20005;-67
2024/04/10 12:07:41;;;;;;;1.83;0.70;;;;;;;;;;5329774;26;20013;-67
2024/04/10 12:10:08;;;;;;;1.17;0.40;;;;;;;;;;5326561;26;20033;-67
2024/04/10 12:12:34;;;;;;;1.42;0.50;;;;;;;;;;5328714;26;20001;-68
2024/04/10 12:15:00;;;;;;;0.43;0.30;;;;;;;;;;5325008;26;20008;-67
2024/04/10 12:17:26;;;;;;;0.60;0.30;;;;;;;;;;5335168;26;20094;-67
2024/04/10 12:19:52;;;;;;;1.55;0.80;;;;;;;;;;5331717;26;19997;-67
2024/04/10 12:22:19;;;;;;;0.45;0.22;;;;;;;;;;5334269;26;20008;-68
2024/04/10 12:24:44;;;;;;;1.55;0.43;;;;;;;;;;5323200;26;20001;-68
2024/04/10 12:27:10;;;;;;;1.60;0.68;;;;;;;;;;5324354;26;20448;-70
2024/04/10 12:29:36;;;;;;;0.85;0.52;;;;;;;;;;5314233;26;20005;-70
2024/04/10 12:32:02;;;;;;;0.60;0.30;;;;;;;;;;5331227;26;20005;-67
2024/04/10 12:34:28;;;;;;;0.68;0.40;;;;;;;;;;5330256;26;20132;-67
2024/04/10 12:39:39;;;;;;;3.10;0.50;;;;;;;;;;5320270;26;20012;-67
2024/04/10 12:42:05;;;;;;;1.13;0.38;;;;;;;;;;5316944;26;20399;-67
2024/04/10 12:44:31;;;;;;;1.25;0.50;;;;;;;;;;5328320;26;20024;-68
2024/04/10 12:46:58;;;;;;;0.80;0.38;;;;;;;;;;5335623;26;20082;-67
2024/04/10 12:49:24;;;;;;;0.60;0.40;;;;;;;;;;5328213;26;20098;-67
2024/04/10 12:51:51;;;;;;;1.55;0.70;;;;;;;;;;5319330;26;20438;-68
2024/04/10 12:54:17;;;;;;;0.70;0.30;;;;;;;;;;5317413;26;20035;-67
2024/04/10 12:56:45;;;;;;;2.97;1.02;;;;;;;;;;5328629;26;20290;-68
2024/04/10 12:59:11;;;;;;;2.22;0.50;;;;;;;;;;5325288;26;20020;-67
2024/04/10 13:01:37;;;;;;;2.17;0.55;;;;;;;;;;5333842;26;20036;-70
2024/04/10 13:04:05;;;;;;;2.70;0.77;;;;;;;;;;5332975;26;20052;-67
2024/04/10 13:06:30;;;;;;;0.70;0.43;;;;;;;;;;5330841;26;20024;-68
2024/04/10 13:08:57;;;;;;;1.65;0.57;;;;;;;;;;5329884;26;20016;-67
2024/04/10 13:11:22;;;;;;;2.70;1.10;;;;;;;;;;5328485;26;20433;-67
2024/04/10 13:13:49;;;;;;;0.70;0.40;;;;;;;;;;5330746;26;20056;-66
2024/04/10 13:16:15;;;;;;;1.83;0.52;;;;;;;;;;5328632;26;19997;-67
2024/04/10 13:18:44;;;;;;;0.75;0.40;;;;;;;;;;5321643;26;20002;-68
2024/04/10 13:21:10;;;;;;;1.92;0.60;;;;;;;;;;5325542;26;20016;-68
2024/04/10 13:23:42;;;;;;;1.73;0.57;;;;;;;;;;5323968;26;20015;-68
2024/04/10 13:26:09;;;;;;;1.35;0.68;;;;;;;;;;5332549;26;19993;-70
2024/04/10 13:28:36;;;;;;;1.60;0.30;;;;;;;;;;5333016;26;20086;-67
2024/04/10 13:31:12;;;;;;;2.20;0.70;;;;;;;;;;5320011;26;19997;-67
2024/04/10 13:33:38;;;;;;;1.48;0.60;;;;;;;;;;5320341;26;20005;-67
2024/04/10 13:36:05;;;;;;;1.30;0.40;;;;;;;;;;5330744;26;20436;-68
2024/04/10 13:38:31;;;;;;;1.80;0.68;;;;;;;;;;5330360;26;20050;-68
2024/04/10 13:41:08;;;;;;;1.58;0.82;;;;;;;;;;5327065;26;20008;-67
2024/04/10 13:43:34;;;;;;;2.90;0.60;;;;;;;;;;5327357;26;20379;-67
2024/04/10 13:46:03;;;;;;;0.43;0.32;;;;;;;;;;5333017;26;19993;-67
2024/04/10 13:48:29;;;;;;;0.60;0.30;;;;;;;;;;5323918;26;20083;-68
2024/04/10 13:50:55;;;;;;;0.88;0.35;;;;;;;;;;5316109;26;20012;-68
2024/04/10 13:53:22;;;;;;;0.95;0.40;;;;;;;;;;5329853;26;20178;-67
2024/04/10 13:55:48;;;;;;;3.80;0.70;;;;;;;;;;5334614;26;20009;-67
2024/04/10 13:58:14;;;;;;;1.98;0.50;;;;;;;;;;5331983;26;20387;-67
2024/04/10 14:00:40;;;;;;;1.10;0.50;;;;;;;;;;5328083;26;20001;-67
2024/04/10 14:03:07;;;;;;;2.20;0.60;;;;;;;;;;5334207;26;20001;-67
2024/04/10 14:05:33;;;;;;;1.30;0.50;;;;;;;;;;5327026;26;20015;-68
2024/04/10 14:07:59;;;;;;;1.35;0.30;;;;;;;;;;5325151;26;20306;-67
2024/04/10 14:10:25;;;;;;;1.40;0.60;;;;;;;;;;5320144;26;20009;-66
2024/04/10 14:12:51;;;;;;;1.83;0.50;;;;;;;;;;5318308;26;20016;-67
2024/04/10 14:15:18;;;;;;;1.77;0.50;;;;;;;;;;5318991;26;20066;-66
2024/04/10 14:17:44;;;;;;;0.77;0.40;;;;;;;;;;5320254;26;20015;-67
2024/04/10 14:20:12;;;;;;;2.92;0.70;;;;;;;;;;5320895;26;20009;-67
2024/04/10 14:22:38;;;;;;;2.40;0.70;;;;;;;;;;5325025;26;20045;-66
2024/04/10 14:25:05;;;;;;;0.98;0.52;;;;;;;;;;5320475;26;20001;-67
2024/04/10 14:27:31;;;;;;;0.82;0.35;;;;;;;;;;5315695;26;20125;-68
2024/04/10 14:29:56;;;;;;;2.20;0.60;;;;;;;;;;5312261;26;20069;-68
2024/04/10 14:32:22;;;;;;;0.65;0.30;;;;;;;;;;5321750;26;20489;-67
2024/04/10 14:34:48;;;;;;;1.20;0.35;;;;;;;;;;5320964;26;20070;-66
2024/04/10 14:37:14;;;;;;;0.55;0.32;;;;;;;;;;5330874;26;20005;-67
2024/04/10 14:39:40;;;;;;;0.47;0.40;;;;;;;;;;5326486;26;20040;-68
2024/04/10 14:42:06;;;;;;;1.00;0.60;;;;;;;;;;5324200;26;20005;-67
2024/04/10 14:44:43;;;;;;;1.02;0.43;;;;;;;;;;5328876;26;20000;-69
2024/04/10 14:47:09;;;;;;;0.63;0.45;;;;;;;;;;5325337;26;20299;-68